sensor_id;sensor_type;location;lat;lon;timestamp;P1;durP1;ratioP1;P2;durP2;ratioP2
54993;SDS011;40891;47.242;8.648;2022-08-19T00:00:43;10.95;;;9.77;;
54993;SDS011;40891;47.242;8.648;2022-08-19T00:03:09;11.23;;;9.95;;
54993;SDS011;40891;47.242;8.648;2022-08-19T00:05:34;13.98;;;10.13;;
54993;SDS011;40891;47.242;8.648;2022-08-19T00:08:00;8.07;;;6.85;;
54993;SDS011;40891;47.242;8.648;2022-08-19T00:10:26;8.25;;;7.30;;
54993;SDS011;40891;47.242;8.648;2022-08-19T00:12:51;9.27;;;7.43;;
54993;SDS011;40891;47.242;8.648;2022-08-19T00:15:18;9.90;;;7.53;;
54993;SDS011;40891;47.242;8.648;2022-08-19T00:17:46;7.57;;;6.68;;
54993;SDS011;40891;47.242;8.648;2022-08-19T00:20:12;9.93;;;7.20;;
54993;SDS011;40891;47.242;8.648;2022-08-19T00:22:41;10.35;;;7.53;;
54993;SDS011;40891;47.242;8.648;2022-08-19T00:25:08;8.77;;;7.35;;
54993;SDS011;40891;47.242;8.648;2022-08-19T00:27:33;10.60;;;7.10;;
54993;SDS011;40891;47.242;8.648;2022-08-19T00:29:59;8.70;;;7.28;;
54993;SDS011;40891;47.242;8.648;2022-08-19T00:32:27;9.82;;;7.97;;
54993;SDS011;40891;47.242;8.648;2022-08-19T00:34:53;9.38;;;7.45;;
54993;SDS011;40891;47.242;8.648;2022-08-19T00:37:19;8.40;;;7.10;;
54993;SDS011;40891;47.242;8.648;2022-08-19T00:39:47;10.13;;;7.20;;
54993;SDS011;40891;47.242;8.648;2022-08-19T00:42:13;7.75;;;6.90;;
54993;SDS011;40891;47.242;8.648;2022-08-19T00:44:40;9.23;;;7.65;;
54993;SDS011;40891;47.242;8.648;2022-08-19T00:47:06;10.10;;;6.93;;
54993;SDS011;40891;47.242;8.648;2022-08-19T00:49:33;9.63;;;8.35;;
54993;SDS011;40891;47.242;8.648;2022-08-19T00:52:09;10.60;;;9.15;;
54993;SDS011;40891;47.242;8.648;2022-08-19T00:54:39;9.82;;;8.55;;
54993;SDS011;40891;47.242;8.648;2022-08-19T00:57:06;11.02;;;7.93;;
54993;SDS011;40891;47.242;8.648;2022-08-19T00:59:35;10.52;;;8.70;;
54993;SDS011;40891;47.242;8.648;2022-08-19T01:02:03;8.80;;;7.75;;
54993;SDS011;40891;47.242;8.648;2022-08-19T01:04:29;10.93;;;8.30;;
54993;SDS011;40891;47.242;8.648;2022-08-19T01:06:55;8.52;;;7.38;;
54993;SDS011;40891;47.242;8.648;2022-08-19T01:09:21;9.23;;;7.97;;
54993;SDS011;40891;47.242;8.648;2022-08-19T01:11:47;10.30;;;7.85;;
54993;SDS011;40891;47.242;8.648;2022-08-19T01:14:12;11.30;;;8.15;;
54993;SDS011;40891;47.242;8.648;2022-08-19T01:16:39;9.77;;;8.38;;
54993;SDS011;40891;47.242;8.648;2022-08-19T01:19:12;10.75;;;8.38;;
54993;SDS011;40891;47.242;8.648;2022-08-19T01:21:54;10.82;;;8.38;;
54993;SDS011;40891;47.242;8.648;2022-08-19T01:24:24;7.22;;;5.85;;
54993;SDS011;40891;47.242;8.648;2022-08-19T01:26:50;8.13;;;6.32;;
54993;SDS011;40891;47.242;8.648;2022-08-19T01:29:16;6.68;;;5.93;;
54993;SDS011;40891;47.242;8.648;2022-08-19T01:31:41;9.50;;;5.90;;
54993;SDS011;40891;47.242;8.648;2022-08-19T01:34:07;5.15;;;4.65;;
54993;SDS011;40891;47.242;8.648;2022-08-19T01:38:57;6.57;;;5.22;;
54993;SDS011;40891;47.242;8.648;2022-08-19T01:41:24;4.45;;;4.05;;
54993;SDS011;40891;47.242;8.648;2022-08-19T01:43:50;3.83;;;3.28;;
54993;SDS011;40891;47.242;8.648;2022-08-19T01:46:17;4.38;;;3.60;;
54993;SDS011;40891;47.242;8.648;2022-08-19T01:48:42;3.28;;;2.97;;
54993;SDS011;40891;47.242;8.648;2022-08-19T01:51:09;3.83;;;3.05;;
54993;SDS011;40891;47.242;8.648;2022-08-19T01:53:36;5.18;;;3.25;;
54993;SDS011;40891;47.242;8.648;2022-08-19T01:56:01;3.47;;;2.75;;
54993;SDS011;40891;47.242;8.648;2022-08-19T01:58:29;2.70;;;2.50;;
54993;SDS011;40891;47.242;8.648;2022-08-19T02:01:00;2.83;;;2.53;;
54993;SDS011;40891;47.242;8.648;2022-08-19T02:03:27;3.25;;;2.50;;
54993;SDS011;40891;47.242;8.648;2022-08-19T02:05:59;5.13;;;3.95;;
54993;SDS011;40891;47.242;8.648;2022-08-19T02:08:27;4.03;;;3.47;;
54993;SDS011;40891;47.242;8.648;2022-08-19T02:10:53;5.10;;;3.30;;
54993;SDS011;40891;47.242;8.648;2022-08-19T02:13:18;4.55;;;2.70;;
54993;SDS011;40891;47.242;8.648;2022-08-19T02:15:44;5.38;;;2.67;;
54993;SDS011;40891;47.242;8.648;2022-08-19T02:18:09;3.15;;;2.75;;
54993;SDS011;40891;47.242;8.648;2022-08-19T02:20:36;3.30;;;2.88;;
54993;SDS011;40891;47.242;8.648;2022-08-19T02:23:03;2.58;;;2.38;;
54993;SDS011;40891;47.242;8.648;2022-08-19T02:25:29;2.72;;;2.45;;
54993;SDS011;40891;47.242;8.648;2022-08-19T02:27:54;4.85;;;3.10;;
54993;SDS011;40891;47.242;8.648;2022-08-19T02:30:20;4.63;;;3.60;;
54993;SDS011;40891;47.242;8.648;2022-08-19T02:32:46;3.10;;;2.05;;
54993;SDS011;40891;47.242;8.648;2022-08-19T02:35:12;2.70;;;2.50;;
54993;SDS011;40891;47.242;8.648;2022-08-19T02:37:38;2.42;;;1.80;;
54993;SDS011;40891;47.242;8.648;2022-08-19T02:40:22;2.17;;;1.85;;
54993;SDS011;40891;47.242;8.648;2022-08-19T02:42:47;3.38;;;2.13;;
54993;SDS011;40891;47.242;8.648;2022-08-19T02:45:13;2.33;;;2.13;;
54993;SDS011;40891;47.242;8.648;2022-08-19T02:47:39;2.15;;;1.95;;
54993;SDS011;40891;47.242;8.648;2022-08-19T02:50:05;2.28;;;1.80;;
54993;SDS011;40891;47.242;8.648;2022-08-19T02:52:32;1.70;;;1.60;;
54993;SDS011;40891;47.242;8.648;2022-08-19T02:54:58;2.03;;;1.83;;
54993;SDS011;40891;47.242;8.648;2022-08-19T02:57:25;2.35;;;1.50;;
54993;SDS011;40891;47.242;8.648;2022-08-19T02:59:50;3.05;;;1.65;;
54993;SDS011;40891;47.242;8.648;2022-08-19T03:02:16;1.83;;;1.45;;
54993;SDS011;40891;47.242;8.648;2022-08-19T03:04:42;2.05;;;1.50;;
54993;SDS011;40891;47.242;8.648;2022-08-19T03:07:07;3.88;;;1.30;;
54993;SDS011;40891;47.242;8.648;2022-08-19T03:09:35;1.40;;;1.30;;
54993;SDS011;40891;47.242;8.648;2022-08-19T03:12:02;1.10;;;1.00;;
54993;SDS011;40891;47.242;8.648;2022-08-19T03:14:32;1.60;;;1.35;;
54993;SDS011;40891;47.242;8.648;2022-08-19T03:16:58;1.90;;;1.70;;
54993;SDS011;40891;47.242;8.648;2022-08-19T03:19:24;2.47;;;1.98;;
54993;SDS011;40891;47.242;8.648;2022-08-19T03:21:50;2.72;;;1.85;;
54993;SDS011;40891;47.242;8.648;2022-08-19T03:24:17;5.65;;;2.30;;
54993;SDS011;40891;47.242;8.648;2022-08-19T03:26:48;4.18;;;2.13;;
54993;SDS011;40891;47.242;8.648;2022-08-19T03:29:16;5.25;;;2.58;;
54993;SDS011;40891;47.242;8.648;2022-08-19T03:31:43;3.65;;;2.53;;
54993;SDS011;40891;47.242;8.648;2022-08-19T03:34:10;5.20;;;2.38;;
54993;SDS011;40891;47.242;8.648;2022-08-19T03:36:37;3.88;;;2.70;;
54993;SDS011;40891;47.242;8.648;2022-08-19T03:39:03;5.45;;;3.25;;
54993;SDS011;40891;47.242;8.648;2022-08-19T03:41:31;5.35;;;3.30;;
54993;SDS011;40891;47.242;8.648;2022-08-19T03:44:01;5.65;;;3.15;;
54993;SDS011;40891;47.242;8.648;2022-08-19T03:46:27;3.88;;;3.47;;
54993;SDS011;40891;47.242;8.648;2022-08-19T03:48:56;6.20;;;3.72;;
54993;SDS011;40891;47.242;8.648;2022-08-19T03:51:23;6.20;;;4.15;;
54993;SDS011;40891;47.242;8.648;2022-08-19T03:53:52;6.47;;;5.22;;
54993;SDS011;40891;47.242;8.648;2022-08-19T03:56:19;7.13;;;5.78;;
54993;SDS011;40891;47.242;8.648;2022-08-19T03:58:46;6.65;;;5.45;;
54993;SDS011;40891;47.242;8.648;2022-08-19T04:01:13;7.82;;;5.13;;
54993;SDS011;40891;47.242;8.648;2022-08-19T04:03:41;4.78;;;4.05;;
54993;SDS011;40891;47.242;8.648;2022-08-19T04:06:14;4.85;;;3.38;;
54993;SDS011;40891;47.242;8.648;2022-08-19T04:08:41;5.15;;;3.42;;
54993;SDS011;40891;47.242;8.648;2022-08-19T04:11:09;4.18;;;2.85;;
54993;SDS011;40891;47.242;8.648;2022-08-19T04:13:36;3.17;;;2.40;;
54993;SDS011;40891;47.242;8.648;2022-08-19T04:16:02;4.25;;;2.75;;
54993;SDS011;40891;47.242;8.648;2022-08-19T04:18:29;4.25;;;3.15;;
54993;SDS011;40891;47.242;8.648;2022-08-19T04:20:55;4.18;;;3.45;;
54993;SDS011;40891;47.242;8.648;2022-08-19T04:23:21;4.75;;;3.75;;
54993;SDS011;40891;47.242;8.648;2022-08-19T04:25:47;5.82;;;3.60;;
54993;SDS011;40891;47.242;8.648;2022-08-19T04:28:13;5.10;;;3.72;;
54993;SDS011;40891;47.242;8.648;2022-08-19T04:30:44;4.65;;;3.78;;
54993;SDS011;40891;47.242;8.648;2022-08-19T04:33:12;4.75;;;3.75;;
54993;SDS011;40891;47.242;8.648;2022-08-19T04:35:41;4.55;;;3.33;;
54993;SDS011;40891;47.242;8.648;2022-08-19T04:38:09;5.63;;;3.72;;
54993;SDS011;40891;47.242;8.648;2022-08-19T04:40:42;6.68;;;4.57;;
54993;SDS011;40891;47.242;8.648;2022-08-19T04:43:30;6.15;;;4.57;;
54993;SDS011;40891;47.242;8.648;2022-08-19T04:45:57;7.53;;;5.15;;
54993;SDS011;40891;47.242;8.648;2022-08-19T04:48:22;7.15;;;4.97;;
54993;SDS011;40891;47.242;8.648;2022-08-19T04:50:51;8.35;;;5.70;;
54993;SDS011;40891;47.242;8.648;2022-08-19T04:53:22;9.40;;;5.97;;
54993;SDS011;40891;47.242;8.648;2022-08-19T04:55:53;7.65;;;5.68;;
54993;SDS011;40891;47.242;8.648;2022-08-19T04:58:23;7.78;;;5.95;;
54993;SDS011;40891;47.242;8.648;2022-08-19T05:00:50;8.23;;;6.43;;
54993;SDS011;40891;47.242;8.648;2022-08-19T05:03:16;10.98;;;7.82;;
54993;SDS011;40891;47.242;8.648;2022-08-19T05:05:47;11.18;;;8.15;;
54993;SDS011;40891;47.242;8.648;2022-08-19T05:08:17;11.90;;;8.10;;
54993;SDS011;40891;47.242;8.648;2022-08-19T05:10:49;12.05;;;7.75;;
54993;SDS011;40891;47.242;8.648;2022-08-19T05:13:18;9.52;;;6.88;;
54993;SDS011;40891;47.242;8.648;2022-08-19T05:15:45;11.32;;;8.63;;
54993;SDS011;40891;47.242;8.648;2022-08-19T05:18:19;10.70;;;8.45;;
54993;SDS011;40891;47.242;8.648;2022-08-19T05:21:07;15.95;;;9.73;;
54993;SDS011;40891;47.242;8.648;2022-08-19T05:23:53;13.20;;;10.50;;
54993;SDS011;40891;47.242;8.648;2022-08-19T05:26:19;14.93;;;10.73;;
54993;SDS011;40891;47.242;8.648;2022-08-19T05:28:44;15.95;;;11.38;;
54993;SDS011;40891;47.242;8.648;2022-08-19T05:31:10;15.02;;;11.02;;
54993;SDS011;40891;47.242;8.648;2022-08-19T05:33:35;15.02;;;11.73;;
54993;SDS011;40891;47.242;8.648;2022-08-19T05:36:01;15.95;;;11.30;;
54993;SDS011;40891;47.242;8.648;2022-08-19T05:38:27;16.27;;;11.93;;
54993;SDS011;40891;47.242;8.648;2022-08-19T05:40:55;16.48;;;12.50;;
54993;SDS011;40891;47.242;8.648;2022-08-19T05:43:25;17.33;;;12.82;;
54993;SDS011;40891;47.242;8.648;2022-08-19T05:45:50;17.95;;;12.98;;
54993;SDS011;40891;47.242;8.648;2022-08-19T05:48:16;17.80;;;12.38;;
54993;SDS011;40891;47.242;8.648;2022-08-19T05:50:45;16.55;;;11.48;;
54993;SDS011;40891;47.242;8.648;2022-08-19T05:53:11;14.23;;;9.82;;
54993;SDS011;40891;47.242;8.648;2022-08-19T05:55:38;17.35;;;10.27;;
54993;SDS011;40891;47.242;8.648;2022-08-19T05:58:03;12.30;;;9.95;;
54993;SDS011;40891;47.242;8.648;2022-08-19T06:00:32;13.73;;;10.75;;
54993;SDS011;40891;47.242;8.648;2022-08-19T06:02:58;16.30;;;12.48;;
54993;SDS011;40891;47.242;8.648;2022-08-19T06:05:27;16.83;;;12.77;;
54993;SDS011;40891;47.242;8.648;2022-08-19T06:07:53;18.02;;;13.82;;
54993;SDS011;40891;47.242;8.648;2022-08-19T06:10:19;19.90;;;15.60;;
54993;SDS011;40891;47.242;8.648;2022-08-19T06:12:46;21.67;;;15.85;;
54993;SDS011;40891;47.242;8.648;2022-08-19T06:15:12;18.58;;;14.23;;
54993;SDS011;40891;47.242;8.648;2022-08-19T06:17:38;22.58;;;15.23;;
54993;SDS011;40891;47.242;8.648;2022-08-19T06:20:05;21.83;;;16.27;;
54993;SDS011;40891;47.242;8.648;2022-08-19T06:22:36;21.17;;;15.95;;
54993;SDS011;40891;47.242;8.648;2022-08-19T06:25:06;18.48;;;14.85;;
54993;SDS011;40891;47.242;8.648;2022-08-19T06:27:34;20.35;;;15.13;;
54993;SDS011;40891;47.242;8.648;2022-08-19T06:29:59;21.67;;;15.27;;
54993;SDS011;40891;47.242;8.648;2022-08-19T06:32:25;19.17;;;15.35;;
54993;SDS011;40891;47.242;8.648;2022-08-19T06:34:50;19.98;;;15.45;;
54993;SDS011;40891;47.242;8.648;2022-08-19T06:37:16;21.55;;;16.40;;
54993;SDS011;40891;47.242;8.648;2022-08-19T06:39:42;20.48;;;15.68;;
54993;SDS011;40891;47.242;8.648;2022-08-19T06:42:09;22.80;;;16.02;;
54993;SDS011;40891;47.242;8.648;2022-08-19T06:44:39;18.77;;;15.25;;
54993;SDS011;40891;47.242;8.648;2022-08-19T06:47:07;20.90;;;15.38;;
54993;SDS011;40891;47.242;8.648;2022-08-19T06:49:34;22.58;;;15.70;;
54993;SDS011;40891;47.242;8.648;2022-08-19T06:52:00;17.48;;;14.98;;
54993;SDS011;40891;47.242;8.648;2022-08-19T06:54:27;18.52;;;16.35;;
54993;SDS011;40891;47.242;8.648;2022-08-19T06:56:54;20.55;;;15.52;;
54993;SDS011;40891;47.242;8.648;2022-08-19T06:59:22;19.23;;;16.25;;
54993;SDS011;40891;47.242;8.648;2022-08-19T07:01:53;20.60;;;16.08;;
54993;SDS011;40891;47.242;8.648;2022-08-19T07:04:21;19.00;;;14.80;;
54993;SDS011;40891;47.242;8.648;2022-08-19T07:06:49;19.55;;;15.25;;
54993;SDS011;40891;47.242;8.648;2022-08-19T07:09:21;24.38;;;14.68;;
54993;SDS011;40891;47.242;8.648;2022-08-19T07:11:52;21.48;;;15.52;;
54993;SDS011;40891;47.242;8.648;2022-08-19T07:14:19;20.92;;;14.85;;
54993;SDS011;40891;47.242;8.648;2022-08-19T07:16:47;20.02;;;14.88;;
54993;SDS011;40891;47.242;8.648;2022-08-19T07:19:13;19.48;;;15.32;;
54993;SDS011;40891;47.242;8.648;2022-08-19T07:21:39;22.75;;;16.45;;
54993;SDS011;40891;47.242;8.648;2022-08-19T07:24:06;17.92;;;14.00;;
54993;SDS011;40891;47.242;8.648;2022-08-19T07:26:33;19.02;;;14.55;;
54993;SDS011;40891;47.242;8.648;2022-08-19T07:29:03;18.48;;;15.20;;
54993;SDS011;40891;47.242;8.648;2022-08-19T07:31:29;16.98;;;13.43;;
54993;SDS011;40891;47.242;8.648;2022-08-19T07:33:55;22.55;;;15.88;;
54993;SDS011;40891;47.242;8.648;2022-08-19T07:36:23;28.83;;;21.48;;
54993;SDS011;40891;47.242;8.648;2022-08-19T07:38:51;34.35;;;24.13;;
54993;SDS011;40891;47.242;8.648;2022-08-19T07:41:20;25.85;;;18.80;;
54993;SDS011;40891;47.242;8.648;2022-08-19T07:43:48;20.52;;;17.15;;
54993;SDS011;40891;47.242;8.648;2022-08-19T07:46:14;21.70;;;16.30;;
54993;SDS011;40891;47.242;8.648;2022-08-19T07:48:41;18.15;;;15.45;;
54993;SDS011;40891;47.242;8.648;2022-08-19T07:51:08;19.00;;;14.88;;
54993;SDS011;40891;47.242;8.648;2022-08-19T07:53:35;19.55;;;15.65;;
54993;SDS011;40891;47.242;8.648;2022-08-19T07:56:03;18.67;;;15.27;;
54993;SDS011;40891;47.242;8.648;2022-08-19T07:58:34;17.85;;;15.07;;
54993;SDS011;40891;47.242;8.648;2022-08-19T08:01:01;20.98;;;13.63;;
54993;SDS011;40891;47.242;8.648;2022-08-19T08:03:28;15.57;;;13.32;;
54993;SDS011;40891;47.242;8.648;2022-08-19T08:06:14;14.65;;;11.80;;
54993;SDS011;40891;47.242;8.648;2022-08-19T08:08:59;13.43;;;11.43;;
54993;SDS011;40891;47.242;8.648;2022-08-19T08:11:45;13.85;;;11.95;;
54993;SDS011;40891;47.242;8.648;2022-08-19T08:14:15;16.52;;;11.63;;
54993;SDS011;40891;47.242;8.648;2022-08-19T08:17:02;12.18;;;10.82;;
54993;SDS011;40891;47.242;8.648;2022-08-19T08:19:29;11.57;;;9.85;;
54993;SDS011;40891;47.242;8.648;2022-08-19T08:21:56;11.45;;;10.25;;
54993;SDS011;40891;47.242;8.648;2022-08-19T08:24:23;13.80;;;9.73;;
54993;SDS011;40891;47.242;8.648;2022-08-19T08:26:49;11.80;;;9.85;;
54993;SDS011;40891;47.242;8.648;2022-08-19T08:29:14;10.55;;;9.20;;
54993;SDS011;40891;47.242;8.648;2022-08-19T08:31:41;9.32;;;8.02;;
54993;SDS011;40891;47.242;8.648;2022-08-19T08:34:07;7.43;;;6.60;;
54993;SDS011;40891;47.242;8.648;2022-08-19T08:36:41;6.43;;;5.60;;
54993;SDS011;40891;47.242;8.648;2022-08-19T08:39:10;6.25;;;4.70;;
54993;SDS011;40891;47.242;8.648;2022-08-19T08:44:48;5.35;;;4.30;;
54993;SDS011;40891;47.242;8.648;2022-08-19T08:47:22;5.70;;;4.50;;
54993;SDS011;40891;47.242;8.648;2022-08-19T08:49:51;5.57;;;4.72;;
54993;SDS011;40891;47.242;8.648;2022-08-19T08:52:18;5.25;;;4.75;;
54993;SDS011;40891;47.242;8.648;2022-08-19T08:54:53;7.00;;;5.53;;
54993;SDS011;40891;47.242;8.648;2022-08-19T09:00:08;6.07;;;5.32;;
54993;SDS011;40891;47.242;8.648;2022-08-19T09:02:37;10.07;;;5.07;;
54993;SDS011;40891;47.242;8.648;2022-08-19T09:05:03;6.57;;;5.50;;
54993;SDS011;40891;47.242;8.648;2022-08-19T09:15:44;8.65;;;5.60;;
54993;SDS011;40891;47.242;8.648;2022-08-19T09:18:14;6.75;;;5.60;;
54993;SDS011;40891;47.242;8.648;2022-08-19T09:20:41;8.25;;;6.10;;
54993;SDS011;40891;47.242;8.648;2022-08-19T09:23:07;6.50;;;5.18;;
54993;SDS011;40891;47.242;8.648;2022-08-19T09:25:34;6.80;;;5.30;;
54993;SDS011;40891;47.242;8.648;2022-08-19T09:27:59;5.68;;;4.88;;
54993;SDS011;40891;47.242;8.648;2022-08-19T09:30:28;6.90;;;5.57;;
54993;SDS011;40891;47.242;8.648;2022-08-19T09:32:55;5.28;;;4.53;;
54993;SDS011;40891;47.242;8.648;2022-08-19T09:35:21;6.88;;;5.18;;
54993;SDS011;40891;47.242;8.648;2022-08-19T09:37:49;7.32;;;5.63;;
54993;SDS011;40891;47.242;8.648;2022-08-19T09:40:14;7.55;;;6.00;;
54993;SDS011;40891;47.242;8.648;2022-08-19T09:42:40;5.07;;;4.28;;
54993;SDS011;40891;47.242;8.648;2022-08-19T09:45:08;6.25;;;5.25;;
54993;SDS011;40891;47.242;8.648;2022-08-19T09:47:34;8.35;;;6.22;;
54993;SDS011;40891;47.242;8.648;2022-08-19T09:50:03;8.32;;;6.07;;
54993;SDS011;40891;47.242;8.648;2022-08-19T09:52:30;9.23;;;6.05;;
54993;SDS011;40891;47.242;8.648;2022-08-19T09:54:56;6.13;;;5.53;;
54993;SDS011;40891;47.242;8.648;2022-08-19T09:57:21;6.85;;;6.10;;
54993;SDS011;40891;47.242;8.648;2022-08-19T09:59:46;8.90;;;6.65;;
54993;SDS011;40891;47.242;8.648;2022-08-19T10:02:12;8.68;;;6.95;;
54993;SDS011;40891;47.242;8.648;2022-08-19T10:04:39;8.63;;;6.93;;
54993;SDS011;40891;47.242;8.648;2022-08-19T10:07:23;7.28;;;6.40;;
54993;SDS011;40891;47.242;8.648;2022-08-19T10:09:49;8.88;;;7.65;;
54993;SDS011;40891;47.242;8.648;2022-08-19T10:12:15;9.63;;;7.93;;
54993;SDS011;40891;47.242;8.648;2022-08-19T10:14:40;9.48;;;7.28;;
54993;SDS011;40891;47.242;8.648;2022-08-19T10:17:06;7.80;;;6.43;;
54993;SDS011;40891;47.242;8.648;2022-08-19T10:19:31;7.95;;;6.45;;
54993;SDS011;40891;47.242;8.648;2022-08-19T10:22:02;7.05;;;6.15;;
54993;SDS011;40891;47.242;8.648;2022-08-19T10:24:29;7.47;;;5.90;;
54993;SDS011;40891;47.242;8.648;2022-08-19T10:26:55;5.90;;;5.03;;
54993;SDS011;40891;47.242;8.648;2022-08-19T10:29:21;5.85;;;5.18;;
54993;SDS011;40891;47.242;8.648;2022-08-19T10:31:46;5.85;;;5.20;;
54993;SDS011;40891;47.242;8.648;2022-08-19T10:34:12;8.45;;;6.38;;
54993;SDS011;40891;47.242;8.648;2022-08-19T10:36:37;6.50;;;5.57;;
54993;SDS011;40891;47.242;8.648;2022-08-19T10:39:05;7.10;;;6.28;;
54993;SDS011;40891;47.242;8.648;2022-08-19T10:41:34;6.93;;;5.88;;
54993;SDS011;40891;47.242;8.648;2022-08-19T10:44:02;7.07;;;5.93;;
54993;SDS011;40891;47.242;8.648;2022-08-19T10:46:30;6.03;;;4.95;;
54993;SDS011;40891;47.242;8.648;2022-08-19T10:48:57;8.90;;;5.88;;
54993;SDS011;40891;47.242;8.648;2022-08-19T10:51:24;7.78;;;5.55;;
54993;SDS011;40891;47.242;8.648;2022-08-19T10:54:08;7.57;;;5.45;;
54993;SDS011;40891;47.242;8.648;2022-08-19T10:56:34;6.95;;;5.15;;
54993;SDS011;40891;47.242;8.648;2022-08-19T11:01:46;8.13;;;6.07;;
54993;SDS011;40891;47.242;8.648;2022-08-19T11:04:13;7.78;;;6.40;;
54993;SDS011;40891;47.242;8.648;2022-08-19T11:06:43;7.25;;;5.50;;
54993;SDS011;40891;47.242;8.648;2022-08-19T11:09:13;6.32;;;5.18;;
54993;SDS011;40891;47.242;8.648;2022-08-19T11:11:40;8.43;;;5.85;;
54993;SDS011;40891;47.242;8.648;2022-08-19T11:14:07;6.25;;;5.13;;
54993;SDS011;40891;47.242;8.648;2022-08-19T11:16:34;6.63;;;5.20;;
54993;SDS011;40891;47.242;8.648;2022-08-19T11:19:00;6.78;;;5.03;;
54993;SDS011;40891;47.242;8.648;2022-08-19T11:21:27;7.18;;;6.05;;
54993;SDS011;40891;47.242;8.648;2022-08-19T11:24:01;8.07;;;6.20;;
54993;SDS011;40891;47.242;8.648;2022-08-19T11:26:29;7.35;;;5.65;;
54993;SDS011;40891;47.242;8.648;2022-08-19T11:28:56;7.07;;;6.38;;
54993;SDS011;40891;47.242;8.648;2022-08-19T11:31:24;8.93;;;6.38;;
54993;SDS011;40891;47.242;8.648;2022-08-19T11:33:51;8.88;;;6.47;;
54993;SDS011;40891;47.242;8.648;2022-08-19T11:36:20;10.13;;;8.73;;
54993;SDS011;40891;47.242;8.648;2022-08-19T11:38:49;10.13;;;8.45;;
54993;SDS011;40891;47.242;8.648;2022-08-19T11:41:16;13.93;;;9.40;;
54993;SDS011;40891;47.242;8.648;2022-08-19T11:43:43;11.07;;;8.60;;
54993;SDS011;40891;47.242;8.648;2022-08-19T11:46:10;12.07;;;10.05;;
54993;SDS011;40891;47.242;8.648;2022-08-19T11:48:37;13.55;;;10.50;;
54993;SDS011;40891;47.242;8.648;2022-08-19T11:51:07;12.57;;;11.07;;
54993;SDS011;40891;47.242;8.648;2022-08-19T11:53:43;13.43;;;9.75;;
54993;SDS011;40891;47.242;8.648;2022-08-19T11:56:09;12.45;;;9.05;;
54993;SDS011;40891;47.242;8.648;2022-08-19T11:58:35;12.18;;;9.40;;
54993;SDS011;40891;47.242;8.648;2022-08-19T12:01:01;11.82;;;9.10;;
54993;SDS011;40891;47.242;8.648;2022-08-19T12:03:30;11.68;;;9.32;;
54993;SDS011;40891;47.242;8.648;2022-08-19T12:05:56;11.82;;;9.40;;
54993;SDS011;40891;47.242;8.648;2022-08-19T12:08:21;13.35;;;10.57;;
54993;SDS011;40891;47.242;8.648;2022-08-19T12:10:47;15.20;;;10.48;;
54993;SDS011;40891;47.242;8.648;2022-08-19T12:13:13;12.48;;;9.40;;
54993;SDS011;40891;47.242;8.648;2022-08-19T12:15:44;11.27;;;9.35;;
54993;SDS011;40891;47.242;8.648;2022-08-19T12:18:11;10.23;;;8.50;;
54993;SDS011;40891;47.242;8.648;2022-08-19T12:20:39;10.90;;;8.65;;
54993;SDS011;40891;47.242;8.648;2022-08-19T12:23:07;8.93;;;7.80;;
54993;SDS011;40891;47.242;8.648;2022-08-19T12:25:34;10.90;;;8.52;;
54993;SDS011;40891;47.242;8.648;2022-08-19T12:28:00;11.43;;;8.20;;
54993;SDS011;40891;47.242;8.648;2022-08-19T12:30:27;11.10;;;9.05;;
54993;SDS011;40891;47.242;8.648;2022-08-19T12:32:52;10.30;;;8.63;;
54993;SDS011;40891;47.242;8.648;2022-08-19T12:35:18;13.10;;;10.57;;
54993;SDS011;40891;47.242;8.648;2022-08-19T12:37:45;12.43;;;9.95;;
54993;SDS011;40891;47.242;8.648;2022-08-19T12:40:12;14.07;;;10.27;;
54993;SDS011;40891;47.242;8.648;2022-08-19T12:42:39;12.27;;;10.25;;
54993;SDS011;40891;47.242;8.648;2022-08-19T12:45:07;13.60;;;11.07;;
54993;SDS011;40891;47.242;8.648;2022-08-19T12:47:33;13.10;;;10.98;;
54993;SDS011;40891;47.242;8.648;2022-08-19T12:49:59;14.43;;;10.77;;
54993;SDS011;40891;47.242;8.648;2022-08-19T12:52:25;14.60;;;12.05;;
54993;SDS011;40891;47.242;8.648;2022-08-19T12:54:53;14.63;;;12.18;;
54993;SDS011;40891;47.242;8.648;2022-08-19T12:57:20;16.02;;;12.32;;
54993;SDS011;40891;47.242;8.648;2022-08-19T12:59:53;17.00;;;12.73;;
54993;SDS011;40891;47.242;8.648;2022-08-19T13:02:19;19.98;;;14.45;;
54993;SDS011;40891;47.242;8.648;2022-08-19T13:04:45;19.20;;;15.15;;
54993;SDS011;40891;47.242;8.648;2022-08-19T13:07:10;18.40;;;14.70;;
54993;SDS011;40891;47.242;8.648;2022-08-19T13:09:36;21.77;;;16.42;;
54993;SDS011;40891;47.242;8.648;2022-08-19T13:12:02;20.48;;;15.68;;
54993;SDS011;40891;47.242;8.648;2022-08-19T13:14:32;20.90;;;16.30;;
54993;SDS011;40891;47.242;8.648;2022-08-19T13:16:58;20.70;;;15.35;;
54993;SDS011;40891;47.242;8.648;2022-08-19T13:19:23;20.13;;;16.10;;
54993;SDS011;40891;47.242;8.648;2022-08-19T13:21:49;22.17;;;16.60;;
54993;SDS011;40891;47.242;8.648;2022-08-19T13:24:16;22.40;;;16.25;;
54993;SDS011;40891;47.242;8.648;2022-08-19T13:26:41;21.63;;;15.95;;
54993;SDS011;40891;47.242;8.648;2022-08-19T13:29:07;20.15;;;15.45;;
54993;SDS011;40891;47.242;8.648;2022-08-19T13:31:51;20.15;;;14.60;;
54993;SDS011;40891;47.242;8.648;2022-08-19T13:34:35;20.40;;;15.68;;
54993;SDS011;40891;47.242;8.648;2022-08-19T13:37:01;19.92;;;14.93;;
54993;SDS011;40891;47.242;8.648;2022-08-19T13:39:28;18.92;;;13.70;;
54993;SDS011;40891;47.242;8.648;2022-08-19T13:41:54;19.55;;;14.13;;
54993;SDS011;40891;47.242;8.648;2022-08-19T13:44:19;19.63;;;15.05;;
54993;SDS011;40891;47.242;8.648;2022-08-19T13:46:46;17.30;;;13.93;;
54993;SDS011;40891;47.242;8.648;2022-08-19T13:49:13;19.65;;;14.00;;
54993;SDS011;40891;47.242;8.648;2022-08-19T13:51:40;17.60;;;14.32;;
54993;SDS011;40891;47.242;8.648;2022-08-19T13:54:06;20.98;;;14.30;;
54993;SDS011;40891;47.242;8.648;2022-08-19T13:56:34;17.27;;;13.55;;
54993;SDS011;40891;47.242;8.648;2022-08-19T13:59:00;16.65;;;11.93;;
54993;SDS011;40891;47.242;8.648;2022-08-19T14:01:26;19.33;;;14.10;;
54993;SDS011;40891;47.242;8.648;2022-08-19T14:03:51;18.00;;;13.02;;
54993;SDS011;40891;47.242;8.648;2022-08-19T14:06:17;14.88;;;11.85;;
54993;SDS011;40891;47.242;8.648;2022-08-19T14:08:43;15.82;;;12.15;;
54993;SDS011;40891;47.242;8.648;2022-08-19T14:11:09;12.57;;;10.57;;
54993;SDS011;40891;47.242;8.648;2022-08-19T14:13:35;14.25;;;11.45;;
54993;SDS011;40891;47.242;8.648;2022-08-19T14:16:01;14.25;;;10.88;;
54993;SDS011;40891;47.242;8.648;2022-08-19T14:18:32;13.45;;;11.35;;
54993;SDS011;40891;47.242;8.648;2022-08-19T14:20:57;14.57;;;10.15;;
54993;SDS011;40891;47.242;8.648;2022-08-19T14:23:22;13.82;;;10.35;;
54993;SDS011;40891;47.242;8.648;2022-08-19T14:25:48;17.08;;;12.40;;
54993;SDS011;40891;47.242;8.648;2022-08-19T14:28:13;13.40;;;10.88;;
54993;SDS011;40891;47.242;8.648;2022-08-19T14:30:38;14.00;;;12.02;;
54993;SDS011;40891;47.242;8.648;2022-08-19T14:33:04;15.10;;;11.73;;
54993;SDS011;40891;47.242;8.648;2022-08-19T14:35:31;18.67;;;13.68;;
54993;SDS011;40891;47.242;8.648;2022-08-19T14:38:00;17.77;;;13.00;;
54993;SDS011;40891;47.242;8.648;2022-08-19T14:40:28;15.45;;;12.38;;
54993;SDS011;40891;47.242;8.648;2022-08-19T14:42:55;13.60;;;11.27;;
54993;SDS011;40891;47.242;8.648;2022-08-19T14:45:24;15.77;;;12.55;;
54993;SDS011;40891;47.242;8.648;2022-08-19T14:47:50;18.13;;;13.13;;
54993;SDS011;40891;47.242;8.648;2022-08-19T14:50:16;19.50;;;14.98;;
54993;SDS011;40891;47.242;8.648;2022-08-19T14:52:42;16.88;;;12.55;;
54993;SDS011;40891;47.242;8.648;2022-08-19T14:55:08;17.30;;;13.93;;
54993;SDS011;40891;47.242;8.648;2022-08-19T14:57:33;17.65;;;13.45;;